sensor_id;sensor_type;location;lat;lon;timestamp;P1;durP1;ratioP1;P2;durP2;ratioP2
46407;SDS011;32110;45.724;21.276;2023-09-08T00:00:29;7.97;;;5.00;;
46407;SDS011;32110;45.724;21.276;2023-09-08T00:02:54;7.80;;;5.20;;
46407;SDS011;32110;45.724;21.276;2023-09-08T00:05:19;8.30;;;5.30;;
46407;SDS011;32110;45.724;21.276;2023-09-08T00:07:45;7.30;;;5.20;;
46407;SDS011;32110;45.724;21.276;2023-09-08T00:10:10;7.17;;;4.90;;
46407;SDS011;32110;45.724;21.276;2023-09-08T00:12:36;10.85;;;6.15;;
46407;SDS011;32110;45.724;21.276;2023-09-08T00:15:02;10.80;;;4.73;;
46407;SDS011;32110;45.724;21.276;2023-09-08T00:17:27;9.32;;;5.20;;
46407;SDS011;32110;45.724;21.276;2023-09-08T00:19:52;8.03;;;4.57;;
46407;SDS011;32110;45.724;21.276;2023-09-08T00:22:17;8.30;;;5.13;;
46407;SDS011;32110;45.724;21.276;2023-09-08T00:24:43;7.73;;;5.07;;
46407;SDS011;32110;45.724;21.276;2023-09-08T00:27:08;7.88;;;5.30;;
46407;SDS011;32110;45.724;21.276;2023-09-08T00:29:34;8.98;;;4.90;;
46407;SDS011;32110;45.724;21.276;2023-09-08T00:32:00;8.07;;;4.93;;
46407;SDS011;32110;45.724;21.276;2023-09-08T00:34:25;9.87;;;5.33;;
46407;SDS011;32110;45.724;21.276;2023-09-08T00:36:50;7.97;;;4.70;;
46407;SDS011;32110;45.724;21.276;2023-09-08T00:39:16;6.82;;;4.80;;
46407;SDS011;32110;45.724;21.276;2023-09-08T00:41:41;8.63;;;4.93;;
46407;SDS011;32110;45.724;21.276;2023-09-08T00:44:06;8.63;;;5.20;;
46407;SDS011;32110;45.724;21.276;2023-09-08T00:46:33;8.35;;;4.95;;
46407;SDS011;32110;45.724;21.276;2023-09-08T00:48:59;9.05;;;5.13;;
46407;SDS011;32110;45.724;21.276;2023-09-08T00:51:25;7.50;;;4.90;;
46407;SDS011;32110;45.724;21.276;2023-09-08T00:53:50;8.55;;;5.50;;
46407;SDS011;32110;45.724;21.276;2023-09-08T00:56:16;8.10;;;4.90;;
46407;SDS011;32110;45.724;21.276;2023-09-08T00:58:41;9.60;;;4.88;;
46407;SDS011;32110;45.724;21.276;2023-09-08T01:01:06;12.73;;;5.70;;
46407;SDS011;32110;45.724;21.276;2023-09-08T01:03:32;8.27;;;4.88;;
46407;SDS011;32110;45.724;21.276;2023-09-08T01:05:57;8.82;;;5.20;;
46407;SDS011;32110;45.724;21.276;2023-09-08T01:08:22;10.47;;;5.33;;
46407;SDS011;32110;45.724;21.276;2023-09-08T01:10:48;9.25;;;5.47;;
46407;SDS011;32110;45.724;21.276;2023-09-08T01:13:13;8.10;;;5.57;;
46407;SDS011;32110;45.724;21.276;2023-09-08T01:15:38;9.67;;;5.77;;
46407;SDS011;32110;45.724;21.276;2023-09-08T01:18:04;11.47;;;5.77;;
46407;SDS011;32110;45.724;21.276;2023-09-08T01:20:55;9.70;;;6.15;;
46407;SDS011;32110;45.724;21.276;2023-09-08T01:24:26;9.32;;;5.88;;
46407;SDS011;32110;45.724;21.276;2023-09-08T01:26:17;9.48;;;6.22;;
46407;SDS011;32110;45.724;21.276;2023-09-08T01:28:43;12.18;;;6.57;;
46407;SDS011;32110;45.724;21.276;2023-09-08T01:31:10;11.77;;;5.75;;
46407;SDS011;32110;45.724;21.276;2023-09-08T01:33:36;10.40;;;5.40;;
46407;SDS011;32110;45.724;21.276;2023-09-08T01:36:02;9.00;;;5.70;;
46407;SDS011;32110;45.724;21.276;2023-09-08T01:38:27;9.85;;;5.28;;
46407;SDS011;32110;45.724;21.276;2023-09-08T01:40:52;10.43;;;5.87;;
46407;SDS011;32110;45.724;21.276;2023-09-08T01:43:17;9.38;;;5.20;;
46407;SDS011;32110;45.724;21.276;2023-09-08T01:45:43;9.45;;;5.35;;
46407;SDS011;32110;45.724;21.276;2023-09-08T01:48:08;9.77;;;5.83;;
46407;SDS011;32110;45.724;21.276;2023-09-08T01:50:33;9.82;;;5.38;;
46407;SDS011;32110;45.724;21.276;2023-09-08T01:52:58;9.18;;;5.38;;
46407;SDS011;32110;45.724;21.276;2023-09-08T01:55:24;11.23;;;5.30;;
46407;SDS011;32110;45.724;21.276;2023-09-08T01:57:49;12.50;;;5.50;;
46407;SDS011;32110;45.724;21.276;2023-09-08T02:00:14;9.87;;;5.80;;
46407;SDS011;32110;45.724;21.276;2023-09-08T02:02:39;7.53;;;5.00;;
46407;SDS011;32110;45.724;21.276;2023-09-08T02:05:06;11.32;;;6.10;;
46407;SDS011;32110;45.724;21.276;2023-09-08T02:07:31;11.02;;;5.65;;
46407;SDS011;32110;45.724;21.276;2023-09-08T02:09:56;8.53;;;5.10;;
46407;SDS011;32110;45.724;21.276;2023-09-08T02:12:22;12.57;;;5.27;;
46407;SDS011;32110;45.724;21.276;2023-09-08T02:14:47;10.07;;;5.27;;
46407;SDS011;32110;45.724;21.276;2023-09-08T02:17:12;7.93;;;5.43;;
46407;SDS011;32110;45.724;21.276;2023-09-08T02:19:38;8.57;;;5.68;;
46407;SDS011;32110;45.724;21.276;2023-09-08T02:22:03;8.73;;;5.60;;
46407;SDS011;32110;45.724;21.276;2023-09-08T02:24:28;8.90;;;5.10;;
46407;SDS011;32110;45.724;21.276;2023-09-08T02:26:54;10.13;;;5.37;;
46407;SDS011;32110;45.724;21.276;2023-09-08T02:29:19;11.23;;;6.25;;
46407;SDS011;32110;45.724;21.276;2023-09-08T02:31:44;10.07;;;6.10;;
46407;SDS011;32110;45.724;21.276;2023-09-08T02:34:10;11.70;;;6.22;;
46407;SDS011;32110;45.724;21.276;2023-09-08T02:36:36;10.88;;;5.70;;
46407;SDS011;32110;45.724;21.276;2023-09-08T02:39:01;14.93;;;6.40;;
46407;SDS011;32110;45.724;21.276;2023-09-08T02:41:27;13.27;;;6.37;;
46407;SDS011;32110;45.724;21.276;2023-09-08T02:43:52;17.43;;;6.57;;
46407;SDS011;32110;45.724;21.276;2023-09-08T02:46:17;13.38;;;6.78;;
46407;SDS011;32110;45.724;21.276;2023-09-08T02:48:42;11.30;;;6.77;;
46407;SDS011;32110;45.724;21.276;2023-09-08T02:51:08;14.20;;;7.10;;
46407;SDS011;32110;45.724;21.276;2023-09-08T02:53:33;10.63;;;6.95;;
46407;SDS011;32110;45.724;21.276;2023-09-08T02:55:58;11.23;;;6.80;;
46407;SDS011;32110;45.724;21.276;2023-09-08T02:58:24;12.30;;;6.30;;
46407;SDS011;32110;45.724;21.276;2023-09-08T03:00:50;12.90;;;6.75;;
46407;SDS011;32110;45.724;21.276;2023-09-08T03:03:17;12.27;;;6.28;;
46407;SDS011;32110;45.724;21.276;2023-09-08T03:05:42;12.68;;;6.40;;
46407;SDS011;32110;45.724;21.276;2023-09-08T03:08:08;10.52;;;5.80;;
46407;SDS011;32110;45.724;21.276;2023-09-08T03:10:33;12.23;;;6.10;;
46407;SDS011;32110;45.724;21.276;2023-09-08T03:13:01;11.48;;;5.88;;
46407;SDS011;32110;45.724;21.276;2023-09-08T03:15:26;7.80;;;5.43;;
46407;SDS011;32110;45.724;21.276;2023-09-08T03:17:55;14.20;;;5.75;;
46407;SDS011;32110;45.724;21.276;2023-09-08T03:20:20;11.07;;;5.65;;
46407;SDS011;32110;45.724;21.276;2023-09-08T03:22:46;8.40;;;5.05;;
46407;SDS011;32110;45.724;21.276;2023-09-08T03:25:12;10.43;;;5.40;;
46407;SDS011;32110;45.724;21.276;2023-09-08T03:27:38;11.77;;;5.70;;
46407;SDS011;32110;45.724;21.276;2023-09-08T03:30:03;12.13;;;5.50;;
46407;SDS011;32110;45.724;21.276;2023-09-08T03:32:29;10.77;;;5.40;;
46407;SDS011;32110;45.724;21.276;2023-09-08T03:34:55;10.15;;;5.70;;
46407;SDS011;32110;45.724;21.276;2023-09-08T03:37:20;9.70;;;5.82;;
46407;SDS011;32110;45.724;21.276;2023-09-08T03:39:45;9.60;;;4.80;;
46407;SDS011;32110;45.724;21.276;2023-09-08T03:42:10;8.50;;;5.20;;
46407;SDS011;32110;45.724;21.276;2023-09-08T03:44:36;10.27;;;5.40;;
46407;SDS011;32110;45.724;21.276;2023-09-08T03:47:01;10.25;;;5.85;;
46407;SDS011;32110;45.724;21.276;2023-09-08T03:49:27;8.93;;;5.53;;
46407;SDS011;32110;45.724;21.276;2023-09-08T03:51:53;12.47;;;6.20;;
46407;SDS011;32110;45.724;21.276;2023-09-08T03:54:18;9.60;;;6.00;;
46407;SDS011;32110;45.724;21.276;2023-09-08T03:56:43;11.90;;;6.13;;
46407;SDS011;32110;45.724;21.276;2023-09-08T03:59:08;16.87;;;5.83;;
46407;SDS011;32110;45.724;21.276;2023-09-08T04:01:33;15.27;;;6.87;;
46407;SDS011;32110;45.724;21.276;2023-09-08T04:03:59;11.37;;;6.63;;
46407;SDS011;32110;45.724;21.276;2023-09-08T04:06:24;11.83;;;7.20;;
46407;SDS011;32110;45.724;21.276;2023-09-08T04:08:49;17.83;;;7.30;;
46407;SDS011;32110;45.724;21.276;2023-09-08T04:11:14;13.63;;;6.87;;
46407;SDS011;32110;45.724;21.276;2023-09-08T04:13:40;15.27;;;7.17;;
46407;SDS011;32110;45.724;21.276;2023-09-08T04:16:05;12.80;;;7.17;;
46407;SDS011;32110;45.724;21.276;2023-09-08T04:18:30;14.47;;;7.70;;
46407;SDS011;32110;45.724;21.276;2023-09-08T04:20:56;13.02;;;7.18;;
46407;SDS011;32110;45.724;21.276;2023-09-08T04:23:21;10.83;;;6.67;;
46407;SDS011;32110;45.724;21.276;2023-09-08T04:25:46;13.23;;;6.93;;
46407;SDS011;32110;45.724;21.276;2023-09-08T04:28:11;11.03;;;6.43;;
46407;SDS011;32110;45.724;21.276;2023-09-08T04:30:37;11.88;;;6.95;;
46407;SDS011;32110;45.724;21.276;2023-09-08T04:33:02;12.37;;;6.03;;
46407;SDS011;32110;45.724;21.276;2023-09-08T04:35:27;13.48;;;5.75;;
46407;SDS011;32110;45.724;21.276;2023-09-08T04:37:53;15.57;;;5.70;;
46407;SDS011;32110;45.724;21.276;2023-09-08T04:40:18;15.18;;;5.93;;
46407;SDS011;32110;45.724;21.276;2023-09-08T04:42:44;10.43;;;5.63;;
46407;SDS011;32110;45.724;21.276;2023-09-08T04:45:09;11.27;;;5.63;;
46407;SDS011;32110;45.724;21.276;2023-09-08T04:47:35;11.02;;;5.82;;
46407;SDS011;32110;45.724;21.276;2023-09-08T04:50:00;14.43;;;5.85;;
46407;SDS011;32110;45.724;21.276;2023-09-08T04:52:26;11.40;;;5.23;;
46407;SDS011;32110;45.724;21.276;2023-09-08T04:54:51;10.23;;;5.40;;
46407;SDS011;32110;45.724;21.276;2023-09-08T04:57:16;9.83;;;5.60;;
46407;SDS011;32110;45.724;21.276;2023-09-08T04:59:41;9.03;;;5.10;;
46407;SDS011;32110;45.724;21.276;2023-09-08T05:02:07;11.40;;;5.03;;
46407;SDS011;32110;45.724;21.276;2023-09-08T05:04:32;10.00;;;4.63;;
46407;SDS011;32110;45.724;21.276;2023-09-08T05:06:57;12.13;;;5.57;;
46407;SDS011;32110;45.724;21.276;2023-09-08T05:09:22;10.13;;;4.77;;
46407;SDS011;32110;45.724;21.276;2023-09-08T05:11:48;11.60;;;5.10;;
46407;SDS011;32110;45.724;21.276;2023-09-08T05:14:13;11.77;;;5.10;;
46407;SDS011;32110;45.724;21.276;2023-09-08T05:16:38;10.88;;;5.30;;
46407;SDS011;32110;45.724;21.276;2023-09-08T05:19:14;10.48;;;4.90;;
46407;SDS011;32110;45.724;21.276;2023-09-08T05:21:40;8.63;;;4.83;;
46407;SDS011;32110;45.724;21.276;2023-09-08T05:24:06;10.23;;;5.20;;
46407;SDS011;32110;45.724;21.276;2023-09-08T05:26:32;10.93;;;5.47;;
46407;SDS011;32110;45.724;21.276;2023-09-08T05:28:57;8.77;;;5.05;;
46407;SDS011;32110;45.724;21.276;2023-09-08T05:31:22;11.37;;;5.63;;
46407;SDS011;32110;45.724;21.276;2023-09-08T05:33:47;13.17;;;5.03;;
46407;SDS011;32110;45.724;21.276;2023-09-08T05:36:12;8.60;;;5.03;;
46407;SDS011;32110;45.724;21.276;2023-09-08T05:38:38;13.60;;;4.83;;
46407;SDS011;32110;45.724;21.276;2023-09-08T05:41:03;13.10;;;5.03;;
46407;SDS011;32110;45.724;21.276;2023-09-08T05:43:28;14.57;;;5.28;;
46407;SDS011;32110;45.724;21.276;2023-09-08T05:45:54;12.60;;;5.30;;
46407;SDS011;32110;45.724;21.276;2023-09-08T05:48:19;19.00;;;5.10;;
46407;SDS011;32110;45.724;21.276;2023-09-08T05:50:44;9.80;;;5.20;;
46407;SDS011;32110;45.724;21.276;2023-09-08T05:53:10;11.63;;;4.95;;
46407;SDS011;32110;45.724;21.276;2023-09-08T05:55:35;12.17;;;5.30;;
46407;SDS011;32110;45.724;21.276;2023-09-08T05:58:00;13.33;;;4.93;;
46407;SDS011;32110;45.724;21.276;2023-09-08T06:00:26;11.83;;;5.23;;
46407;SDS011;32110;45.724;21.276;2023-09-08T06:02:51;9.90;;;4.97;;
46407;SDS011;32110;45.724;21.276;2023-09-08T06:05:16;9.85;;;5.00;;
46407;SDS011;32110;45.724;21.276;2023-09-08T06:07:42;13.27;;;5.25;;
46407;SDS011;32110;45.724;21.276;2023-09-08T06:10:07;14.30;;;5.23;;
46407;SDS011;32110;45.724;21.276;2023-09-08T06:12:32;25.88;;;5.10;;
46407;SDS011;32110;45.724;21.276;2023-09-08T06:14:58;12.90;;;4.63;;
46407;SDS011;32110;45.724;21.276;2023-09-08T06:17:23;11.83;;;5.33;;
46407;SDS011;32110;45.724;21.276;2023-09-08T06:19:48;10.63;;;5.30;;
46407;SDS011;32110;45.724;21.276;2023-09-08T06:22:14;8.77;;;4.90;;
46407;SDS011;32110;45.724;21.276;2023-09-08T06:24:39;13.17;;;5.67;;
46407;SDS011;32110;45.724;21.276;2023-09-08T06:27:05;8.43;;;4.78;;
46407;SDS011;32110;45.724;21.276;2023-09-08T06:29:30;13.25;;;4.88;;
46407;SDS011;32110;45.724;21.276;2023-09-08T06:31:56;9.43;;;5.00;;
46407;SDS011;32110;45.724;21.276;2023-09-08T06:34:23;12.55;;;4.75;;
46407;SDS011;32110;45.724;21.276;2023-09-08T06:36:49;7.80;;;4.77;;
46407;SDS011;32110;45.724;21.276;2023-09-08T06:39:14;24.55;;;6.13;;
46407;SDS011;32110;45.724;21.276;2023-09-08T06:41:39;10.80;;;5.23;;
46407;SDS011;32110;45.724;21.276;2023-09-08T06:44:06;9.45;;;4.85;;
46407;SDS011;32110;45.724;21.276;2023-09-08T06:46:31;10.65;;;5.03;;
46407;SDS011;32110;45.724;21.276;2023-09-08T06:48:57;9.77;;;5.28;;
46407;SDS011;32110;45.724;21.276;2023-09-08T06:51:22;10.07;;;4.03;;
46407;SDS011;32110;45.724;21.276;2023-09-08T06:53:57;9.50;;;4.87;;
46407;SDS011;32110;45.724;21.276;2023-09-08T06:56:22;12.13;;;4.65;;
46407;SDS011;32110;45.724;21.276;2023-09-08T06:58:47;13.35;;;4.85;;
46407;SDS011;32110;45.724;21.276;2023-09-08T07:01:13;8.57;;;4.47;;
46407;SDS011;32110;45.724;21.276;2023-09-08T07:03:38;8.93;;;4.17;;
46407;SDS011;32110;45.724;21.276;2023-09-08T07:06:03;9.80;;;4.40;;
46407;SDS011;32110;45.724;21.276;2023-09-08T07:08:29;7.05;;;4.38;;
46407;SDS011;32110;45.724;21.276;2023-09-08T07:10:54;8.37;;;5.03;;
46407;SDS011;32110;45.724;21.276;2023-09-08T07:13:20;13.10;;;4.50;;
46407;SDS011;32110;45.724;21.276;2023-09-08T07:15:45;10.23;;;4.60;;
46407;SDS011;32110;45.724;21.276;2023-09-08T07:18:10;19.08;;;4.53;;
46407;SDS011;32110;45.724;21.276;2023-09-08T07:20:36;6.57;;;3.95;;
46407;SDS011;32110;45.724;21.276;2023-09-08T07:23:01;8.18;;;3.97;;
46407;SDS011;32110;45.724;21.276;2023-09-08T07:25:28;10.43;;;4.90;;
46407;SDS011;32110;45.724;21.276;2023-09-08T07:27:53;8.32;;;4.80;;
46407;SDS011;32110;45.724;21.276;2023-09-08T07:30:19;8.93;;;4.70;;
46407;SDS011;32110;45.724;21.276;2023-09-08T07:32:45;13.00;;;4.88;;
46407;SDS011;32110;45.724;21.276;2023-09-08T07:35:10;8.23;;;4.22;;
46407;SDS011;32110;45.724;21.276;2023-09-08T07:37:40;8.23;;;4.28;;
46407;SDS011;32110;45.724;21.276;2023-09-08T07:40:07;8.50;;;4.85;;
46407;SDS011;32110;45.724;21.276;2023-09-08T07:42:34;9.40;;;4.57;;
46407;SDS011;32110;45.724;21.276;2023-09-08T07:44:59;7.57;;;4.25;;
46407;SDS011;32110;45.724;21.276;2023-09-08T07:47:24;7.23;;;4.67;;
46407;SDS011;32110;45.724;21.276;2023-09-08T07:49:50;6.43;;;4.45;;
46407;SDS011;32110;45.724;21.276;2023-09-08T07:52:15;8.88;;;4.50;;
46407;SDS011;32110;45.724;21.276;2023-09-08T07:54:41;7.82;;;4.25;;
46407;SDS011;32110;45.724;21.276;2023-09-08T07:57:06;8.20;;;4.30;;
46407;SDS011;32110;45.724;21.276;2023-09-08T07:59:31;8.95;;;4.57;;
46407;SDS011;32110;45.724;21.276;2023-09-08T08:01:57;11.43;;;4.82;;
46407;SDS011;32110;45.724;21.276;2023-09-08T08:04:22;9.77;;;4.65;;
46407;SDS011;32110;45.724;21.276;2023-09-08T08:06:47;13.85;;;4.57;;
46407;SDS011;32110;45.724;21.276;2023-09-08T08:09:16;9.10;;;3.85;;
46407;SDS011;32110;45.724;21.276;2023-09-08T08:11:41;6.32;;;4.15;;
46407;SDS011;32110;45.724;21.276;2023-09-08T08:14:06;10.90;;;4.22;;
46407;SDS011;32110;45.724;21.276;2023-09-08T08:16:32;7.85;;;3.92;;
46407;SDS011;32110;45.724;21.276;2023-09-08T08:18:57;9.83;;;4.30;;
46407;SDS011;32110;45.724;21.276;2023-09-08T08:21:22;6.35;;;4.07;;
46407;SDS011;32110;45.724;21.276;2023-09-08T08:23:48;9.63;;;4.28;;
46407;SDS011;32110;45.724;21.276;2023-09-08T08:26:13;7.30;;;3.80;;
46407;SDS011;32110;45.724;21.276;2023-09-08T08:28:39;5.57;;;3.60;;
46407;SDS011;32110;45.724;21.276;2023-09-08T08:31:04;7.72;;;4.00;;
46407;SDS011;32110;45.724;21.276;2023-09-08T08:33:30;6.90;;;4.05;;
46407;SDS011;32110;45.724;21.276;2023-09-08T08:35:55;7.38;;;3.90;;
46407;SDS011;32110;45.724;21.276;2023-09-08T08:38:21;7.07;;;4.15;;
46407;SDS011;32110;45.724;21.276;2023-09-08T08:40:47;7.45;;;4.60;;
46407;SDS011;32110;45.724;21.276;2023-09-08T08:43:12;7.10;;;4.43;;
46407;SDS011;32110;45.724;21.276;2023-09-08T08:45:38;11.00;;;4.95;;
46407;SDS011;32110;45.724;21.276;2023-09-08T08:48:08;10.63;;;4.78;;
46407;SDS011;32110;45.724;21.276;2023-09-08T08:50:35;9.10;;;4.50;;
46407;SDS011;32110;45.724;21.276;2023-09-08T08:53:03;7.28;;;4.15;;
46407;SDS011;32110;45.724;21.276;2023-09-08T08:55:29;6.90;;;4.00;;
46407;SDS011;32110;45.724;21.276;2023-09-08T08:58:00;6.50;;;4.10;;
46407;SDS011;32110;45.724;21.276;2023-09-08T09:00:30;7.00;;;4.85;;
46407;SDS011;32110;45.724;21.276;2023-09-08T09:02:59;6.43;;;3.85;;
46407;SDS011;32110;45.724;21.276;2023-09-08T09:05:27;6.85;;;4.18;;
46407;SDS011;32110;45.724;21.276;2023-09-08T09:07:53;7.07;;;3.70;;
46407;SDS011;32110;45.724;21.276;2023-09-08T09:12:47;5.00;;;3.67;;
46407;SDS011;32110;45.724;21.276;2023-09-08T09:15:13;6.55;;;3.70;;
46407;SDS011;32110;45.724;21.276;2023-09-08T09:17:38;5.82;;;3.75;;
46407;SDS011;32110;45.724;21.276;2023-09-08T09:20:17;5.72;;;4.03;;
46407;SDS011;32110;45.724;21.276;2023-09-08T09:22:45;6.78;;;4.05;;
46407;SDS011;32110;45.724;21.276;2023-09-08T09:25:24;5.63;;;4.15;;
46407;SDS011;32110;45.724;21.276;2023-09-08T09:27:54;4.70;;;3.55;;
46407;SDS011;32110;45.724;21.276;2023-09-08T09:30:21;5.78;;;3.88;;
46407;SDS011;32110;45.724;21.276;2023-09-08T09:32:47;8.40;;;3.80;;
46407;SDS011;32110;45.724;21.276;2023-09-08T09:35:14;9.32;;;4.05;;
46407;SDS011;32110;45.724;21.276;2023-09-08T09:37:40;6.90;;;3.97;;
46407;SDS011;32110;45.724;21.276;2023-09-08T09:40:06;4.68;;;3.60;;
46407;SDS011;32110;45.724;21.276;2023-09-08T09:42:34;7.60;;;4.32;;
46407;SDS011;32110;45.724;21.276;2023-09-08T09:45:04;7.28;;;4.10;;
46407;SDS011;32110;45.724;21.276;2023-09-08T09:47:30;5.03;;;3.60;;
46407;SDS011;32110;45.724;21.276;2023-09-08T09:49:55;10.93;;;4.32;;
46407;SDS011;32110;45.724;21.276;2023-09-08T09:52:23;7.47;;;3.80;;
46407;SDS011;32110;45.724;21.276;2023-09-08T09:54:52;7.10;;;3.63;;
46407;SDS011;32110;45.724;21.276;2023-09-08T09:57:20;7.53;;;3.92;;
46407;SDS011;32110;45.724;21.276;2023-09-08T09:59:47;13.32;;;4.40;;
46407;SDS011;32110;45.724;21.276;2023-09-08T10:02:15;7.53;;;3.97;;
46407;SDS011;32110;45.724;21.276;2023-09-08T10:04:41;8.43;;;4.32;;
46407;SDS011;32110;45.724;21.276;2023-09-08T10:07:08;10.75;;;4.07;;
46407;SDS011;32110;45.724;21.276;2023-09-08T10:09:35;8.43;;;4.40;;
46407;SDS011;32110;45.724;21.276;2023-09-08T10:12:05;8.85;;;4.63;;
46407;SDS011;32110;45.724;21.276;2023-09-08T10:14:31;19.83;;;8.43;;
46407;SDS011;32110;45.724;21.276;2023-09-08T10:19:26;6.65;;;4.00;;
46407;SDS011;32110;45.724;21.276;2023-09-08T10:21:51;5.88;;;3.75;;
46407;SDS011;32110;45.724;21.276;2023-09-08T10:24:25;7.70;;;3.88;;
46407;SDS011;32110;45.724;21.276;2023-09-08T10:27:00;9.45;;;4.70;;
46407;SDS011;32110;45.724;21.276;2023-09-08T10:29:37;6.38;;;3.60;;
46407;SDS011;32110;45.724;21.276;2023-09-08T10:32:03;6.72;;;4.38;;
46407;SDS011;32110;45.724;21.276;2023-09-08T10:34:30;5.15;;;3.88;;
46407;SDS011;32110;45.724;21.276;2023-09-08T10:36:58;6.82;;;3.88;;
46407;SDS011;32110;45.724;21.276;2023-09-08T10:39:34;8.00;;;3.47;;
46407;SDS011;32110;45.724;21.276;2023-09-08T10:47:19;5.93;;;3.88;;
46407;SDS011;32110;45.724;21.276;2023-09-08T10:49:47;6.55;;;3.67;;
46407;SDS011;32110;45.724;21.276;2023-09-08T10:52:13;10.30;;;4.07;;
46407;SDS011;32110;45.724;21.276;2023-09-08T10:54:42;5.63;;;3.72;;
46407;SDS011;32110;45.724;21.276;2023-09-08T10:57:13;8.15;;;4.22;;
46407;SDS011;32110;45.724;21.276;2023-09-08T10:59:44;7.93;;;3.72;;
46407;SDS011;32110;45.724;21.276;2023-09-08T11:02:40;6.95;;;4.05;;
46407;SDS011;32110;45.724;21.276;2023-09-08T11:05:08;6.28;;;4.25;;
46407;SDS011;32110;45.724;21.276;2023-09-08T11:07:36;5.72;;;3.80;;
46407;SDS011;32110;45.724;21.276;2023-09-08T11:10:03;6.28;;;3.60;;
46407;SDS011;32110;45.724;21.276;2023-09-08T11:12:30;7.18;;;3.55;;
46407;SDS011;32110;45.724;21.276;2023-09-08T11:14:57;4.95;;;3.28;;
46407;SDS011;32110;45.724;21.276;2023-09-08T11:17:25;4.53;;;3.45;;
46407;SDS011;32110;45.724;21.276;2023-09-08T11:19:53;7.47;;;3.75;;
46407;SDS011;32110;45.724;21.276;2023-09-08T11:22:21;6.32;;;3.80;;
46407;SDS011;32110;45.724;21.276;2023-09-08T11:24:48;4.85;;;3.40;;
46407;SDS011;32110;45.724;21.276;2023-09-08T11:27:14;4.45;;;3.47;;
46407;SDS011;32110;45.724;21.276;2023-09-08T11:29:40;6.03;;;3.38;;
46407;SDS011;32110;45.724;21.276;2023-09-08T11:32:08;5.88;;;3.35;;
46407;SDS011;32110;45.724;21.276;2023-09-08T11:34:34;4.95;;;3.45;;
46407;SDS011;32110;45.724;21.276;2023-09-08T11:37:00;4.28;;;3.50;;
46407;SDS011;32110;45.724;21.276;2023-09-08T11:39:30;7.43;;;3.40;;
46407;SDS011;32110;45.724;21.276;2023-09-08T11:41:56;5.72;;;3.55;;
46407;SDS011;32110;45.724;21.276;2023-09-08T11:44:24;8.85;;;3.35;;
46407;SDS011;32110;45.724;21.276;2023-09-08T11:46:49;5.43;;;3.70;;
46407;SDS011;32110;45.724;21.276;2023-09-08T11:49:18;8.43;;;3.80;;
46407;SDS011;32110;45.724;21.276;2023-09-08T11:51:45;7.30;;;3.40;;
46407;SDS011;32110;45.724;21.276;2023-09-08T11:54:10;7.00;;;3.40;;
46407;SDS011;32110;45.724;21.276;2023-09-08T11:56:37;5.15;;;3.50;;
46407;SDS011;32110;45.724;21.276;2023-09-08T11:59:02;4.78;;;3.30;;
46407;SDS011;32110;45.724;21.276;2023-09-08T12:01:28;6.28;;;4.28;;
46407;SDS011;32110;45.724;21.276;2023-09-08T12:03:54;7.80;;;4.10;;
46407;SDS011;32110;45.724;21.276;2023-09-08T12:06:26;10.00;;;4.25;;
46407;SDS011;32110;45.724;21.276;2023-09-08T12:08:56;6.72;;;3.83;;
46407;SDS011;32110;45.724;21.276;2023-09-08T12:11:32;7.30;;;4.38;;
46407;SDS011;32110;45.724;21.276;2023-09-08T12:14:21;7.32;;;3.95;;
46407;SDS011;32110;45.724;21.276;2023-09-08T12:16:46;7.57;;;3.90;;
46407;SDS011;32110;45.724;21.276;2023-09-08T12:19:30;7.60;;;3.60;;
46407;SDS011;32110;45.724;21.276;2023-09-08T12:21:58;5.30;;;3.97;;
46407;SDS011;32110;45.724;21.276;2023-09-08T12:27:16;5.97;;;3.35;;
46407;SDS011;32110;45.724;21.276;2023-09-08T12:32:41;6.35;;;4.00;;
46407;SDS011;32110;45.724;21.276;2023-09-08T12:35:07;11.38;;;3.67;;
46407;SDS011;32110;45.724;21.276;2023-09-08T12:37:33;5.13;;;3.30;;
46407;SDS011;32110;45.724;21.276;2023-09-08T12:39:58;6.00;;;3.58;;
46407;SDS011;32110;45.724;21.276;2023-09-08T12:42:26;4.93;;;3.38;;
46407;SDS011;32110;45.724;21.276;2023-09-08T12:44:54;6.55;;;4.43;;
46407;SDS011;32110;45.724;21.276;2023-09-08T12:47:19;5.00;;;3.80;;
46407;SDS011;32110;45.724;21.276;2023-09-08T12:49:45;6.15;;;3.30;;
46407;SDS011;32110;45.724;21.276;2023-09-08T12:52:10;5.25;;;3.60;;
46407;SDS011;32110;45.724;21.276;2023-09-08T12:54:36;3.80;;;3.10;;
46407;SDS011;32110;45.724;21.276;2023-09-08T12:57:02;4.30;;;3.20;;
46407;SDS011;32110;45.724;21.276;2023-09-08T12:59:27;4.68;;;3.58;;
46407;SDS011;32110;45.724;21.276;2023-09-08T13:01:53;5.05;;;3.55;;
46407;SDS011;32110;45.724;21.276;2023-09-08T13:04:18;5.80;;;3.25;;
46407;SDS011;32110;45.724;21.276;2023-09-08T13:06:44;5.57;;;3.35;;
46407;SDS011;32110;45.724;21.276;2023-09-08T13:09:10;6.50;;;3.40;;
46407;SDS011;32110;45.724;21.276;2023-09-08T13:11:36;5.63;;;3.38;;
46407;SDS011;32110;45.724;21.276;2023-09-08T13:14:01;5.15;;;3.10;;
46407;SDS011;32110;45.724;21.276;2023-09-08T13:16:26;6.10;;;3.35;;
46407;SDS011;32110;45.724;21.276;2023-09-08T13:18:52;5.85;;;3.40;;
46407;SDS011;32110;45.724;21.276;2023-09-08T13:21:17;5.60;;;3.08;;
46407;SDS011;32110;45.724;21.276;2023-09-08T13:23:43;5.28;;;3.00;;
46407;SDS011;32110;45.724;21.276;2023-09-08T13:26:08;8.38;;;3.20;;
46407;SDS011;32110;45.724;21.276;2023-09-08T13:28:33;5.22;;;3.35;;
46407;SDS011;32110;45.724;21.276;2023-09-08T13:30:59;7.65;;;3.50;;
46407;SDS011;32110;45.724;21.276;2023-09-08T13:33:24;5.40;;;3.20;;
46407;SDS011;32110;45.724;21.276;2023-09-08T13:35:49;4.95;;;3.20;;
46407;SDS011;32110;45.724;21.276;2023-09-08T13:38:15;4.25;;;3.22;;
46407;SDS011;32110;45.724;21.276;2023-09-08T13:40:40;5.95;;;3.17;;
46407;SDS011;32110;45.724;21.276;2023-09-08T13:43:08;6.32;;;3.60;;
46407;SDS011;32110;45.724;21.276;2023-09-08T13:45:33;4.97;;;3.20;;
46407;SDS011;32110;45.724;21.276;2023-09-08T13:47:58;8.38;;;3.35;;
46407;SDS011;32110;45.724;21.276;2023-09-08T13:50:24;5.35;;;3.17;;
46407;SDS011;32110;45.724;21.276;2023-09-08T13:52:49;4.18;;;3.30;;
46407;SDS011;32110;45.724;21.276;2023-09-08T13:55:15;7.70;;;3.17;;
46407;SDS011;32110;45.724;21.276;2023-09-08T13:57:40;6.07;;;3.15;;
46407;SDS011;32110;45.724;21.276;2023-09-08T14:00:06;5.93;;;2.95;;
46407;SDS011;32110;45.724;21.276;2023-09-08T14:02:34;8.18;;;3.63;;
46407;SDS011;32110;45.724;21.276;2023-09-08T14:04:59;5.65;;;3.20;;
46407;SDS011;32110;45.724;21.276;2023-09-08T14:07:25;6.85;;;3.30;;
46407;SDS011;32110;45.724;21.276;2023-09-08T14:09:50;7.57;;;3.53;;
46407;SDS011;32110;45.724;21.276;2023-09-08T14:12:16;5.80;;;3.22;;
46407;SDS011;32110;45.724;21.276;2023-09-08T14:14:41;7.15;;;3.15;;
46407;SDS011;32110;45.724;21.276;2023-09-08T14:17:06;3.50;;;2.92;;
46407;SDS011;32110;45.724;21.276;2023-09-08T14:19:32;8.48;;;3.30;;
46407;SDS011;32110;45.724;21.276;2023-09-08T14:21:57;4.25;;;3.17;;
46407;SDS011;32110;45.724;21.276;2023-09-08T14:24:23;5.10;;;3.25;;
46407;SDS011;32110;45.724;21.276;2023-09-08T14:26:48;4.45;;;3.30;;
46407;SDS011;32110;45.724;21.276;2023-09-08T14:29:15;5.13;;;3.42;;
46407;SDS011;32110;45.724;21.276;2023-09-08T14:31:40;4.00;;;3.08;;
46407;SDS011;32110;45.724;21.276;2023-09-08T14:34:06;5.53;;;2.85;;
46407;SDS011;32110;45.724;21.276;2023-09-08T14:36:31;8.70;;;3.60;;
46407;SDS011;32110;45.724;21.276;2023-09-08T14:38:57;4.55;;;3.13;;
46407;SDS011;32110;45.724;21.276;2023-09-08T14:41:23;6.47;;;3.35;;